Time;durP1;ratioP1;P1;durP2;ratioP2;P2;SDS_P1;SDS_P2;PMS_P1;PMS_P2;Temp;Humidity;BMP_temperature;BMP_pressure;BME280_temperature;BME280_humidity;BME280_pressure;Samples;Min_cycle;Max_cycle;Signal;HPM_P1;HPM_P2
2021/04/23 00:00:44;;;;;;;4.70;3.40;;;8.30;99.90;;;;;;5145259;27;20908;-83
2021/04/23 00:03:32;;;;;;;7.80;4.80;;;8.20;99.90;;;;;;5126621;27;20432;-82
2021/04/23 00:06:19;;;;;;;5.33;3.90;;;8.30;99.90;;;;;;5140544;27;20394;-83
2021/04/23 00:08:50;;;;;;;14.70;4.70;;;8.30;99.90;;;;;;5121403;27;20434;-83
2021/04/23 00:11:18;;;;;;;12.30;3.80;;;8.30;99.90;;;;;;5140331;27;20434;-83
2021/04/23 00:13:45;;;;;;;6.23;3.83;;;8.20;99.90;;;;;;5140207;27;20387;-82
2021/04/23 00:16:12;;;;;;;6.10;3.93;;;8.10;99.90;;;;;;5140168;27;20852;-83
2021/04/23 00:18:38;;;;;;;6.93;4.80;;;7.40;99.90;;;;;;5121401;28;20543;-83
2021/04/23 00:21:07;;;;;;;7.73;3.73;;;6.70;99.90;;;;;;5121236;27;20417;-82
2021/04/23 00:23:33;;;;;;;11.30;4.70;;;6.40;99.90;;;;;;5140282;27;20394;-83
2021/04/23 00:26:00;;;;;;;6.40;3.30;;;6.20;99.90;;;;;;5140945;27;20398;-82
2021/04/23 00:28:26;;;;;;;11.13;4.80;;;6.40;99.90;;;;;;5139043;28;20425;-83
2021/04/23 00:30:53;;;;;;;8.27;4.90;;;6.60;99.90;;;;;;5140039;28;20414;-82
2021/04/23 00:33:22;;;;;;;7.30;4.87;;;6.80;99.90;;;;;;5139845;28;20523;-83
2021/04/23 00:35:50;;;;;;;6.03;3.20;;;7.20;99.90;;;;;;5140376;28;20442;-83
2021/04/23 00:38:20;;;;;;;8.10;3.50;;;7.40;99.90;;;;;;5122070;28;20418;-83
2021/04/23 00:40:52;;;;;;;7.97;4.23;;;7.60;99.90;;;;;;5121915;28;20450;-83
2021/04/23 00:43:21;;;;;;;4.43;3.90;;;7.70;99.90;;;;;;5140040;28;20410;-83
2021/04/23 00:45:48;;;;;;;6.03;3.50;;;7.70;99.90;;;;;;5104626;28;20888;-83
2021/04/23 00:48:15;;;;;;;6.30;3.57;;;7.70;99.90;;;;;;5139642;28;20414;-83
2021/04/23 00:50:46;;;;;;;7.10;4.27;;;7.70;99.90;;;;;;5139355;28;20395;-82
2021/04/23 00:53:18;;;;;;;7.47;4.80;;;7.70;99.90;;;;;;5140181;28;20399;-82
2021/04/23 00:55:44;;;;;;;16.93;5.60;;;7.70;99.90;;;;;;5140484;28;20435;-83
2021/04/23 00:58:13;;;;;;;12.40;4.20;;;7.60;99.90;;;;;;5139017;28;20447;-82
2021/04/23 01:00:44;;;;;;;5.60;3.67;;;7.30;99.90;;;;;;5139884;27;20407;-83
2021/04/23 01:03:13;;;;;;;16.60;6.53;;;6.70;99.90;;;;;;5124894;27;20379;-83
2021/04/23 01:05:40;;;;;;;6.47;5.20;;;6.30;99.90;;;;;;5144025;27;20812;-83
2021/04/23 01:08:06;;;;;;;10.07;5.00;;;6.40;99.90;;;;;;5143467;27;20950;-83
2021/04/23 01:10:33;;;;;;;11.33;4.53;;;6.70;99.90;;;;;;5126176;27;20398;-82
2021/04/23 01:13:00;;;;;;;5.67;3.23;;;7.00;99.90;;;;;;5145061;27;20390;-82
2021/04/23 01:15:26;;;;;;;4.30;3.83;;;7.00;99.90;;;;;;5160220;27;20506;-82
2021/04/23 01:17:54;;;;;;;7.20;5.30;;;7.20;99.90;;;;;;5151167;27;20466;-82
2021/04/23 01:20:21;;;;;;;4.20;3.03;;;7.30;99.90;;;;;;5144228;27;20398;-83
2021/04/23 01:22:47;;;;;;;5.67;4.40;;;7.30;99.90;;;;;;5125629;27;20422;-83
2021/04/23 01:25:15;;;;;;;12.23;4.87;;;7.30;99.90;;;;;;5146518;27;20422;-83
2021/04/23 01:27:41;;;;;;;4.63;4.03;;;7.30;99.90;;;;;;5152775;27;20402;-83
2021/04/23 01:30:12;;;;;;;8.80;4.73;;;7.30;99.90;;;;;;5148626;27;20425;-83
2021/04/23 01:32:39;;;;;;;15.80;5.33;;;7.30;99.90;;;;;;5145222;27;20391;-82
2021/04/23 01:35:08;;;;;;;7.73;4.83;;;7.30;99.90;;;;;;5144868;27;20458;-83
2021/04/23 01:37:34;;;;;;;9.73;3.37;;;7.30;99.90;;;;;;5125105;27;20494;-82
2021/04/23 01:40:02;;;;;;;5.30;2.87;;;6.50;99.90;;;;;;5126098;27;20397;-83
2021/04/23 01:42:28;;;;;;;5.30;3.50;;;5.70;99.90;;;;;;5124770;27;20950;-83
2021/04/23 01:44:57;;;;;;;10.80;4.70;;;5.30;99.90;;;;;;5124672;27;20398;-83
2021/04/23 01:47:24;;;;;;;7.43;4.10;;;5.00;99.90;;;;;;5143887;27;20169;-83
2021/04/23 01:49:51;;;;;;;9.93;4.60;;;4.80;99.90;;;;;;5145275;27;20374;-82
2021/04/23 01:52:18;;;;;;;6.63;3.77;;;4.60;99.90;;;;;;5145466;27;20391;-83
2021/04/23 01:54:45;;;;;;;3.73;3.40;;;4.70;99.90;;;;;;5143351;27;20709;-82
2021/04/23 01:57:11;;;;;;;9.30;4.53;;;4.50;99.90;;;;;;5142891;27;20411;-82
2021/04/23 01:59:39;;;;;;;8.40;3.60;;;4.40;99.90;;;;;;5142586;27;20405;-83
2021/04/23 02:02:05;;;;;;;7.23;3.43;;;4.50;99.90;;;;;;5124727;27;20416;-82
2021/04/23 02:04:31;;;;;;;7.80;5.37;;;4.60;99.90;;;;;;5142736;27;20392;-83
2021/04/23 02:06:58;;;;;;;6.47;3.70;;;4.20;99.90;;;;;;5123492;27;20398;-83
2021/04/23 02:09:24;;;;;;;6.53;3.37;;;4.50;99.90;;;;;;5142374;27;20411;-83
2021/04/23 02:11:52;;;;;;;9.67;3.87;;;4.20;99.90;;;;;;5141960;27;20422;-83
2021/04/23 02:14:19;;;;;;;7.07;3.40;;;4.30;99.90;;;;;;5143008;27;20197;-83
2021/04/23 02:16:46;;;;;;;9.90;3.90;;;4.50;99.90;;;;;;5124844;27;20397;-82
2021/04/23 02:19:13;;;;;;;5.73;3.27;;;4.50;99.90;;;;;;5142965;27;20384;-83
2021/04/23 02:21:41;;;;;;;7.57;4.17;;;4.50;99.90;;;;;;5142220;27;20476;-83
2021/04/23 02:24:08;;;;;;;5.00;3.30;;;4.50;99.90;;;;;;5141988;27;20414;-82
2021/04/23 02:26:35;;;;;;;7.13;3.07;;;4.50;99.90;;;;;;5143259;27;20422;-83
2021/04/23 02:29:03;;;;;;;5.63;3.70;;;4.40;99.90;;;;;;5123856;27;20432;-82
2021/04/23 02:31:30;;;;;;;9.20;4.57;;;4.30;99.90;;;;;;5142047;27;20486;-82
2021/04/23 02:33:59;;;;;;;4.30;3.20;;;4.30;99.90;;;;;;5142282;27;20902;-82
2021/04/23 02:36:26;;;;;;;9.30;4.17;;;4.20;99.90;;;;;;5142508;27;20422;-83
2021/04/23 02:38:52;;;;;;;5.13;3.83;;;4.30;99.90;;;;;;5142623;27;20424;-83
2021/04/23 02:41:19;;;;;;;4.80;3.30;;;4.40;99.90;;;;;;5142228;27;20443;-83
2021/04/23 02:43:51;;;;;;;6.40;3.90;;;4.40;99.90;;;;;;5125408;27;20773;-83
2021/04/23 02:46:18;;;;;;;8.67;5.17;;;4.50;99.90;;;;;;5151159;27;20391;-82
2021/04/23 02:48:45;;;;;;;4.80;3.30;;;4.60;99.90;;;;;;5150316;27;20481;-82
2021/04/23 02:51:16;;;;;;;5.13;3.53;;;4.90;99.90;;;;;;5148329;27;20428;-82
2021/04/23 02:53:43;;;;;;;4.17;3.80;;;5.10;99.90;;;;;;5150458;27;20395;-83
2021/04/23 02:56:13;;;;;;;5.40;3.80;;;4.70;99.90;;;;;;5141310;27;20403;-82
2021/04/23 02:58:40;;;;;;;11.50;4.20;;;4.40;99.90;;;;;;5160507;27;20384;-82
2021/04/23 03:01:12;;;;;;;7.90;3.70;;;4.10;99.90;;;;;;5148417;27;20426;-82
2021/04/23 03:03:39;;;;;;;6.80;4.37;;;3.90;99.90;;;;;;5142046;27;20400;-82
2021/04/23 03:06:07;;;;;;;11.80;4.70;;;4.00;99.90;;;;;;5144631;27;20387;-83
2021/04/23 03:08:33;;;;;;;13.60;4.37;;;3.90;99.90;;;;;;5123988;27;20424;-83
2021/04/23 03:11:07;;;;;;;8.80;3.60;;;3.90;99.90;;;;;;5141554;27;20397;-82
2021/04/23 03:13:34;;;;;;;4.03;3.13;;;3.70;99.90;;;;;;5141778;27;20813;-82
2021/04/23 03:16:00;;;;;;;5.80;3.60;;;3.40;99.90;;;;;;5141590;27;20395;-83
2021/04/23 03:18:29;;;;;;;5.60;3.83;;;3.20;99.90;;;;;;5122234;27;20440;-83
2021/04/23 03:20:57;;;;;;;10.50;4.50;;;3.10;99.90;;;;;;5122887;27;20171;-83
2021/04/23 03:23:23;;;;;;;5.20;3.33;;;3.00;99.90;;;;;;5141041;27;20385;-83
2021/04/23 03:25:51;;;;;;;9.07;3.37;;;2.80;99.90;;;;;;5118330;28;20408;-83
2021/04/23 03:28:17;;;;;;;6.40;3.20;;;2.70;99.90;;;;;;5131634;27;20486;-83
2021/04/23 03:30:46;;;;;;;6.13;3.73;;;2.60;99.90;;;;;;5141265;27;20438;-83
2021/04/23 03:33:14;;;;;;;9.90;5.10;;;2.60;99.90;;;;;;5141124;27;20383;-83
2021/04/23 03:35:41;;;;;;;4.23;2.50;;;2.50;99.90;;;;;;5140795;27;20397;-82
2021/04/23 03:38:09;;;;;;;3.87;3.50;;;2.50;99.90;;;;;;5140643;27;20423;-82
2021/04/23 03:40:37;;;;;;;6.40;3.43;;;2.50;99.90;;;;;;5140526;27;20446;-83
2021/04/23 03:43:05;;;;;;;4.10;3.07;;;2.50;99.90;;;;;;5141518;27;20422;-82
2021/04/23 03:45:31;;;;;;;7.07;4.30;;;2.50;99.90;;;;;;5140942;27;20491;-83
2021/04/23 03:47:57;;;;;;;9.90;3.30;;;2.50;99.90;;;;;;5141479;27;20370;-82
2021/04/23 03:50:30;;;;;;;6.07;3.57;;;2.40;99.90;;;;;;5121886;27;20517;-82
2021/04/23 03:52:58;;;;;;;5.30;4.53;;;2.30;99.90;;;;;;5139832;27;20246;-82
2021/04/23 03:55:29;;;;;;;19.97;4.03;;;2.40;99.90;;;;;;5140686;27;20411;-83
2021/04/23 03:57:57;;;;;;;2.67;2.50;;;2.60;99.90;;;;;;5122371;27;20425;-83
2021/04/23 04:00:29;;;;;;;11.27;4.67;;;2.90;99.90;;;;;;5139980;27;20414;-83
2021/04/23 04:02:54;;;;;;;3.73;3.43;;;2.80;99.90;;;;;;5141521;27;20402;-83
2021/04/23 04:05:20;;;;;;;5.00;3.43;;;2.80;99.90;;;;;;5123500;27;20450;-82
2021/04/23 04:07:48;;;;;;;5.80;3.87;;;2.80;99.90;;;;;;5124256;27;20283;-82
2021/04/23 04:10:15;;;;;;;3.43;3.13;;;2.80;99.90;;;;;;5145235;27;20419;-80
2021/04/23 04:12:41;;;;;;;6.30;3.10;;;2.80;99.90;;;;;;5142446;27;20386;-83
2021/04/23 04:15:08;;;;;;;9.47;4.13;;;2.80;99.90;;;;;;5140724;27;20490;-83
2021/04/23 04:17:33;;;;;;;5.23;3.13;;;2.80;99.90;;;;;;5140129;27;20179;-83
2021/04/23 04:20:00;;;;;;;7.40;3.60;;;2.90;99.90;;;;;;5139851;27;20490;-83
2021/04/23 04:22:26;;;;;;;6.43;3.30;;;2.80;99.90;;;;;;5156371;27;20161;-83
2021/04/23 04:24:52;;;;;;;7.67;3.97;;;2.90;99.90;;;;;;5150020;27;20413;-82
2021/04/23 04:27:18;;;;;;;5.20;3.93;;;2.70;99.90;;;;;;5140707;27;20438;-83
2021/04/23 04:29:46;;;;;;;3.80;3.37;;;2.70;99.90;;;;;;5140740;28;20188;-83
2021/04/23 04:32:11;;;;;;;6.00;3.63;;;2.90;99.90;;;;;;5122009;28;20172;-82
2021/04/23 04:34:38;;;;;;;6.63;3.50;;;2.70;99.90;;;;;;5121210;28;20870;-82
2021/04/23 04:37:03;;;;;;;6.13;3.70;;;2.60;99.90;;;;;;5124475;27;20172;-82
2021/04/23 04:39:29;;;;;;;7.63;3.90;;;2.60;99.90;;;;;;5110244;27;20415;-82
2021/04/23 04:41:55;;;;;;;6.40;5.27;;;2.80;99.90;;;;;;5143695;27;20454;-82
2021/04/23 04:44:21;;;;;;;6.20;3.40;;;2.90;99.90;;;;;;5143529;27;20283;-83
2021/04/23 04:46:47;;;;;;;7.90;4.43;;;3.00;99.90;;;;;;5144279;27;20671;-83
2021/04/23 04:49:13;;;;;;;8.40;4.73;;;3.20;99.90;;;;;;5143954;27;20198;-83
2021/04/23 04:51:39;;;;;;;7.07;4.23;;;3.40;99.90;;;;;;5144648;27;20193;-82
2021/04/23 04:54:05;;;;;;;6.70;4.03;;;3.70;99.90;;;;;;5146753;27;20798;-83
2021/04/23 04:56:31;;;;;;;9.07;4.27;;;3.90;99.90;;;;;;5146287;27;20169;-83
2021/04/23 04:58:57;;;;;;;5.17;3.90;;;3.90;99.90;;;;;;5144986;27;20874;-82
2021/04/23 05:01:23;;;;;;;8.07;4.10;;;3.60;99.90;;;;;;5143567;27;20394;-83
2021/04/23 05:03:50;;;;;;;6.70;5.20;;;3.70;99.90;;;;;;5125772;27;20607;-81
2021/04/23 05:06:18;;;;;;;7.40;4.30;;;3.60;99.90;;;;;;5143939;27;20780;-82
2021/04/23 05:08:44;;;;;;;10.43;5.13;;;3.60;99.90;;;;;;5143050;27;20490;-83
2021/04/23 05:11:10;;;;;;;4.17;3.33;;;3.70;99.90;;;;;;5143282;27;20464;-83
2021/04/23 05:13:36;;;;;;;8.13;5.30;;;4.00;99.90;;;;;;5125640;27;20421;-83
2021/04/23 05:16:01;;;;;;;13.70;4.80;;;4.30;99.90;;;;;;5125342;27;20173;-83
2021/04/23 05:18:27;;;;;;;8.33;4.60;;;4.50;99.90;;;;;;5142248;27;20215;-83
2021/04/23 05:20:53;;;;;;;23.63;6.47;;;4.80;99.90;;;;;;5124206;27;20200;-83
2021/04/23 05:23:19;;;;;;;11.90;5.00;;;4.60;99.90;;;;;;5144174;27;20173;-83
2021/04/23 05:25:45;;;;;;;15.00;5.57;;;4.90;99.90;;;;;;5143224;27;20292;-83
2021/04/23 05:28:11;;;;;;;6.37;4.60;;;5.30;99.90;;;;;;5125343;27;20149;-83
2021/04/23 05:30:38;;;;;;;10.90;5.33;;;5.60;99.90;;;;;;5125928;27;20543;-83
2021/04/23 05:33:06;;;;;;;8.13;6.00;;;5.80;99.90;;;;;;5142803;27;20415;-83
2021/04/23 05:35:32;;;;;;;10.00;5.60;;;6.00;99.90;;;;;;5125098;27;21000;-83
2021/04/23 05:37:59;;;;;;;10.93;6.07;;;5.90;99.90;;;;;;5108056;27;20395;-83
2021/04/23 05:40:29;;;;;;;21.57;7.50;;;6.00;99.90;;;;;;5107352;27;20180;-82
2021/04/23 05:42:55;;;;;;;13.10;7.63;;;6.10;99.90;;;;;;5143127;27;20415;-83
2021/04/23 05:45:22;;;;;;;10.33;5.53;;;5.80;99.90;;;;;;5125887;27;20445;-82
2021/04/23 05:47:48;;;;;;;19.97;8.13;;;5.70;99.90;;;;;;5148308;27;20418;-83
2021/04/23 05:50:15;;;;;;;20.53;7.80;;;6.10;99.90;;;;;;5146637;27;20903;-83
2021/04/23 05:52:42;;;;;;;8.10;5.63;;;6.30;99.90;;;;;;5149094;27;20411;-82
2021/04/23 05:55:13;;;;;;;7.37;5.00;;;6.20;99.90;;;;;;5153320;27;20787;-82
2021/04/23 05:57:39;;;;;;;12.83;8.40;;;5.80;99.90;;;;;;5142939;27;20884;-82
2021/04/23 06:00:08;;;;;;;7.70;4.53;;;6.00;99.90;;;;;;5130584;27;20459;-82
2021/04/23 06:02:34;;;;;;;6.93;4.70;;;6.00;99.90;;;;;;5135451;27;20848;-82
2021/04/23 06:05:00;;;;;;;8.43;5.37;;;6.20;99.90;;;;;;5126768;27;20530;-82
2021/04/23 06:07:27;;;;;;;4.63;4.00;;;6.30;99.90;;;;;;5136745;27;20931;-82
2021/04/23 06:09:53;;;;;;;10.10;5.40;;;6.40;99.90;;;;;;5130731;27;20623;-83
2021/04/23 06:12:18;;;;;;;15.43;4.97;;;6.10;99.90;;;;;;5124480;27;20451;-82
2021/04/23 06:14:44;;;;;;;6.20;4.73;;;5.30;99.90;;;;;;5112322;27;20436;-82
2021/04/23 06:17:10;;;;;;;14.53;5.53;;;5.10;99.90;;;;;;5144549;27;20177;-80
2021/04/23 06:19:36;;;;;;;7.10;4.57;;;5.20;99.90;;;;;;5127918;27;20692;-80
2021/04/23 06:22:03;;;;;;;11.35;6.85;;;4.80;99.90;;;;;;5132407;27;20425;-84
2021/04/23 06:24:29;;;;;;;13.23;5.97;;;5.00;99.90;;;;;;5143854;27;20205;-84
2021/04/23 06:26:54;;;;;;;9.03;5.57;;;5.10;99.90;;;;;;5077436;28;20927;-84
2021/04/23 06:29:20;;;;;;;10.83;6.73;;;5.70;99.90;;;;;;5090432;28;20206;-84
2021/04/23 06:31:46;;;;;;;9.07;5.13;;;6.20;99.90;;;;;;5088220;28;20199;-84
2021/04/23 06:34:12;;;;;;;7.87;4.73;;;6.30;99.90;;;;;;5058305;28;20181;-83
2021/04/23 06:36:39;;;;;;;12.43;5.40;;;5.80;99.90;;;;;;5088279;28;20456;-84
2021/04/23 06:39:14;;;;;;;8.30;4.97;;;5.50;99.90;;;;;;5079289;28;20448;-83
2021/04/23 06:41:40;;;;;;;6.27;5.67;;;5.50;99.90;;;;;;5078703;28;20606;-83
2021/04/23 06:44:06;;;;;;;14.00;5.13;;;5.90;99.90;;;;;;5084600;28;20464;-82
2021/04/23 06:46:32;;;;;;;13.23;6.03;;;6.20;99.90;;;;;;5082966;28;20199;-83
2021/04/23 06:48:57;;;;;;;9.70;5.93;;;6.50;99.90;;;;;;5064301;28;20186;-83
2021/04/23 06:51:23;;;;;;;6.97;5.37;;;6.90;99.90;;;;;;5083013;28;20438;-83
2021/04/23 06:53:49;;;;;;;6.07;5.30;;;7.20;99.90;;;;;;5072594;28;20644;-83
2021/04/23 06:56:15;;;;;;;6.83;4.80;;;7.20;99.90;;;;;;5082265;28;20210;-83
2021/04/23 06:58:42;;;;;;;7.43;4.40;;;7.50;99.90;;;;;;5095767;27;20454;-83
2021/04/23 07:01:08;;;;;;;19.80;5.40;;;7.50;99.90;;;;;;5131170;27;20173;-82
2021/04/23 07:03:34;;;;;;;9.00;6.00;;;7.50;99.90;;;;;;5097033;27;20450;-83
2021/04/23 07:06:00;;;;;;;20.77;4.97;;;7.60;99.90;;;;;;5100174;27;20327;-83
2021/04/23 07:08:26;;;;;;;6.70;4.60;;;7.60;99.90;;;;;;5125521;27;20508;-83
2021/04/23 07:10:52;;;;;;;15.83;5.50;;;7.80;99.90;;;;;;5125230;27;20184;-83
2021/04/23 07:13:18;;;;;;;9.30;5.23;;;7.90;99.90;;;;;;5128042;27;20442;-82
2021/04/23 07:15:44;;;;;;;12.63;5.70;;;7.90;99.90;;;;;;5132275;27;20567;-82
2021/04/23 07:18:11;;;;;;;9.50;5.33;;;8.10;99.90;;;;;;5110585;27;20459;-83
2021/04/23 07:20:37;;;;;;;23.63;6.77;;;8.10;99.90;;;;;;5044776;28;20515;-83
2021/04/23 07:23:04;;;;;;;9.70;5.07;;;8.10;99.90;;;;;;5057700;28;20805;-84
2021/04/23 07:25:30;;;;;;;17.13;5.90;;;8.20;99.90;;;;;;5072227;28;20457;-83
2021/04/23 07:27:58;;;;;;;6.27;5.17;;;8.30;99.90;;;;;;5079821;28;20495;-82
2021/04/23 07:30:28;;;;;;;16.00;6.17;;;8.50;99.90;;;;;;5062791;28;20291;-83
2021/04/23 07:32:54;;;;;;;8.73;4.40;;;8.60;99.90;;;;;;5066541;28;20563;-83
2021/04/23 07:35:21;;;;;;;7.53;5.10;;;8.60;99.90;;;;;;5045985;28;20433;-83
2021/04/23 07:37:46;;;;;;;8.93;5.60;;;8.70;99.90;;;;;;5068992;28;20435;-83
2021/04/23 07:40:14;;;;;;;12.37;5.27;;;8.70;99.90;;;;;;5049843;28;20934;-83
2021/04/23 07:42:42;;;;;;;16.03;5.13;;;8.60;99.90;;;;;;5061943;28;20434;-84
2021/04/23 07:45:09;;;;;;;13.00;4.40;;;8.70;99.90;;;;;;5029329;28;20454;-84
2021/04/23 07:47:35;;;;;;;9.80;5.50;;;8.60;99.90;;;;;;5058921;28;20439;-84
2021/04/23 07:50:04;;;;;;;9.60;5.47;;;8.80;99.90;;;;;;5063196;28;20488;-84
2021/04/23 07:52:30;;;;;;;8.00;5.10;;;8.90;99.90;;;;;;5084822;28;20786;-83
2021/04/23 07:54:57;;;;;;;13.20;5.17;;;9.00;99.90;;;;;;5103264;27;20483;-83
2021/04/23 07:57:24;;;;;;;10.00;5.87;;;9.10;99.90;;;;;;5126939;27;20288;-83
2021/04/23 07:59:50;;;;;;;10.60;5.33;;;9.20;99.90;;;;;;5093683;27;20415;-81
2021/04/23 08:02:17;;;;;;;7.37;5.10;;;9.20;99.90;;;;;;5127226;27;20426;-84
2021/04/23 08:04:42;;;;;;;11.57;5.20;;;8.90;99.90;;;;;;5114000;27;20486;-83
2021/04/23 08:07:10;;;;;;;10.50;4.87;;;8.70;99.90;;;;;;5118151;27;20507;-83
2021/04/23 08:09:36;;;;;;;8.00;4.93;;;8.90;99.90;;;;;;5134003;27;20213;-82
2021/04/23 08:12:03;;;;;;;8.80;3.90;;;8.70;99.90;;;;;;5118056;27;20509;-83
2021/04/23 08:14:28;;;;;;;9.10;4.97;;;9.10;99.90;;;;;;5123785;27;20495;-84
2021/04/23 08:16:54;;;;;;;14.10;4.80;;;9.30;99.90;;;;;;5101186;27;20499;-83
2021/04/23 08:19:20;;;;;;;5.50;4.20;;;9.30;99.90;;;;;;5121965;27;20206;-83
2021/04/23 08:21:47;;;;;;;11.20;6.67;;;9.20;99.90;;;;;;5128024;27;20186;-83
2021/04/23 08:24:13;;;;;;;9.30;4.53;;;9.40;99.90;;;;;;5099550;28;20465;-83
2021/04/23 08:26:42;;;;;;;15.43;3.97;;;9.40;99.90;;;;;;5106132;27;20480;-83
2021/04/23 08:29:08;;;;;;;8.30;4.57;;;9.40;99.90;;;;;;5086059;27;20461;-83
2021/04/23 08:31:34;;;;;;;10.50;4.40;;;9.50;99.90;;;;;;5125458;27;20435;-85
2021/04/23 08:34:08;;;;;;;6.20;4.43;;;9.40;99.90;;;;;;5128136;27;20478;-86
2021/04/23 08:36:34;;;;;;;8.37;4.47;;;9.50;99.90;;;;;;5106528;28;20292;-83
2021/04/23 08:39:00;;;;;;;10.63;5.50;;;9.50;99.90;;;;;;5117086;27;20442;-80
2021/04/23 08:41:27;;;;;;;10.63;5.63;;;9.40;99.90;;;;;;5121551;28;20480;-84
2021/04/23 08:43:53;;;;;;;6.87;4.70;;;9.70;99.90;;;;;;5104337;27;20439;-82
2021/04/23 08:46:19;;;;;;;8.53;4.90;;;9.70;99.90;;;;;;5089868;28;20419;-84
2021/04/23 08:48:47;;;;;;;8.37;5.80;;;9.80;99.90;;;;;;5108655;27;20548;-84
2021/04/23 08:51:15;;;;;;;9.13;5.57;;;9.90;99.90;;;;;;5129272;27;20435;-82
2021/04/23 08:53:41;;;;;;;7.43;6.07;;;9.40;99.90;;;;;;5115578;28;20440;-84
2021/04/23 08:56:07;;;;;;;6.87;4.40;;;8.90;99.90;;;;;;5107658;27;20443;-84
2021/04/23 08:58:33;;;;;;;9.13;5.17;;;9.10;99.90;;;;;;5099294;27;20525;-83
2021/04/23 09:01:02;;;;;;;10.43;5.10;;;9.50;99.90;;;;;;5126063;27;20563;-85
2021/04/23 09:03:29;;;;;;;14.30;4.70;;;9.80;99.90;;;;;;5109772;28;20193;-82
2021/04/23 09:06:15;;;;;;;9.03;5.57;;;9.70;99.90;;;;;;5069712;28;20524;-83
2021/04/23 09:08:59;;;;;;;8.03;5.30;;;10.00;99.90;;;;;;5091156;28;20451;-84
2021/04/23 09:11:31;;;;;;;12.83;5.40;;;10.30;99.90;;;;;;5085906;28;20450;-83
2021/04/23 09:14:01;;;;;;;6.40;5.30;;;10.50;99.90;;;;;;5124613;27;20498;-86
2021/04/23 09:16:49;;;;;;;9.13;4.83;;;10.40;99.90;;;;;;5124941;27;20849;-84
2021/04/23 09:19:21;;;;;;;11.33;6.43;;;10.70;99.90;;;;;;5121670;27;20531;-84
2021/04/23 09:21:59;;;;;;;6.63;4.80;;;11.00;99.90;;;;;;5096882;27;20449;-83
2021/04/23 09:24:32;;;;;;;12.30;6.00;;;10.70;99.90;;;;;;5080078;27;20470;-82
2021/04/23 09:27:07;;;;;;;14.13;5.73;;;11.10;99.90;;;;;;5122569;27;20533;-85
2021/04/23 09:29:38;;;;;;;9.80;5.43;;;11.10;99.90;;;;;;5096315;27;20475;-85
2021/04/23 09:32:12;;;;;;;6.90;5.27;;;11.10;99.90;;;;;;5114650;27;20467;-84
2021/04/23 09:34:51;;;;;;;9.60;4.60;;;11.40;99.90;;;;;;5111040;27;20960;-84
2021/04/23 09:37:19;;;;;;;9.47;5.30;;;11.60;99.90;;;;;;5114173;27;20473;-83
2021/04/23 09:39:47;;;;;;;6.23;4.63;;;11.80;99.90;;;;;;5095919;27;20467;-84
2021/04/23 09:42:13;;;;;;;5.40;4.20;;;11.70;99.90;;;;;;5089892;28;20474;-84
2021/04/23 09:44:49;;;;;;;9.93;6.13;;;11.90;99.90;;;;;;5076552;28;20452;-84
2021/04/23 09:47:20;;;;;;;12.93;5.63;;;11.80;99.90;;;;;;5088342;28;20772;-84
2021/04/23 09:49:55;;;;;;;7.50;5.00;;;12.10;99.90;;;;;;5101789;28;20431;-83
2021/04/23 09:52:22;;;;;;;7.43;4.53;;;12.30;99.90;;;;;;5089032;27;20436;-84
2021/04/23 09:54:51;;;;;;;11.90;4.37;;;12.50;99.90;;;;;;5105342;27;20500;-83
2021/04/23 09:57:21;;;;;;;10.20;5.50;;;12.60;99.90;;;;;;5086613;28;20484;-84
2021/04/23 09:59:50;;;;;;;6.07;4.47;;;12.50;99.90;;;;;;5083382;28;20415;-83
2021/04/23 10:02:17;;;;;;;6.80;4.90;;;12.50;99.90;;;;;;5097883;27;20729;-84
2021/04/23 10:04:43;;;;;;;15.17;4.80;;;12.60;99.90;;;;;;5105821;27;20488;-84
2021/04/23 10:07:14;;;;;;;10.87;4.33;;;13.00;99.90;;;;;;5088906;28;20440;-85
2021/04/23 10:10:04;;;;;;;6.10;4.03;;;13.00;99.90;;;;;;5072753;28;20420;-84
2021/04/23 10:12:53;;;;;;;11.60;4.53;;;13.10;99.90;;;;;;5103387;28;20835;-84
2021/04/23 10:15:41;;;;;;;5.37;4.50;;;13.10;99.90;;;;;;5101252;28;20502;-84
2021/04/23 10:18:09;;;;;;;4.63;4.23;;;13.10;99.90;;;;;;5090142;28;20437;-84
2021/04/23 10:20:40;;;;;;;5.53;3.80;;;13.30;99.90;;;;;;5091895;27;20478;-84
2021/04/23 10:23:08;;;;;;;5.10;4.53;;;13.20;98.60;;;;;;5100706;27;20435;-84
2021/04/23 10:25:34;;;;;;;4.50;3.80;;;13.70;99.30;;;;;;5033986;28;20796;-83
2021/04/23 10:28:02;;;;;;;3.40;3.10;;;13.80;94.30;;;;;;5096520;28;20428;-84
2021/04/23 10:30:31;;;;;;;5.27;4.13;;;13.70;91.90;;;;;;5089432;28;20481;-84
2021/04/23 10:33:03;;;;;;;6.90;4.23;;;13.80;90.10;;;;;;5089392;28;21683;-83
2021/04/23 10:35:31;;;;;;;8.33;4.33;;;13.80;90.50;;;;;;5065597;28;20416;-83
2021/04/23 10:38:06;;;;;;;11.57;5.90;;;13.90;94.80;;;;;;5095349;28;20508;-84
2021/04/23 10:40:33;;;;;;;6.20;4.03;;;14.20;98.30;;;;;;5091570;28;20489;-83
2021/04/23 10:43:03;;;;;;;6.77;3.63;;;14.40;97.70;;;;;;5108540;28;20451;-84
2021/04/23 10:45:35;;;;;;;5.00;3.73;;;14.50;96.90;;;;;;5071108;28;20510;-83
2021/04/23 10:48:23;;;;;;;12.37;3.90;;;14.50;92.90;;;;;;5082413;27;20483;-83
2021/04/23 10:50:52;;;;;;;10.47;5.20;;;14.40;93.50;;;;;;5069706;28;20470;-83
2021/04/23 10:53:30;;;;;;;8.47;4.33;;;15.00;93.60;;;;;;5060724;28;20463;-84
2021/04/23 10:56:05;;;;;;;7.40;4.20;;;15.20;92.40;;;;;;5026031;28;20492;-84
2021/04/23 10:58:38;;;;;;;6.63;3.93;;;15.20;90.40;;;;;;5020934;28;20434;-85
2021/04/23 11:01:24;;;;;;;4.47;4.13;;;15.50;89.80;;;;;;5021183;28;20556;-85
2021/04/23 11:04:11;;;;;;;6.93;4.50;;;14.30;92.60;;;;;;5026873;28;20442;-85
2021/04/23 11:06:42;;;;;;;6.93;4.30;;;14.90;88.90;;;;;;5037562;28;20660;-84
2021/04/23 11:09:12;;;;;;;4.57;4.13;;;15.70;90.10;;;;;;5036156;28;20589;-85
2021/04/23 11:11:41;;;;;;;6.20;4.80;;;16.10;82.90;;;;;;5004827;28;20949;-83
2021/04/23 11:14:28;;;;;;;5.73;3.63;;;16.70;86.00;;;;;;5036856;28;20484;-83
2021/04/23 11:17:15;;;;;;;6.03;4.27;;;17.20;79.90;;;;;;5047191;28;20490;-84
2021/04/23 11:19:42;;;;;;;6.83;3.60;;;16.00;75.10;;;;;;5035205;28;20437;-84
2021/04/23 11:22:11;;;;;;;3.87;3.57;;;16.00;82.70;;;;;;5020621;28;20477;-84
2021/04/23 11:24:38;;;;;;;4.77;3.70;;;17.00;74.00;;;;;;5035783;28;21024;-84
2021/04/23 11:27:07;;;;;;;3.80;3.40;;;17.70;75.50;;;;;;5067674;28;20444;-84
2021/04/23 11:30:00;;;;;;;4.10;3.80;;;18.40;70.10;;;;;;5081204;27;20451;-84
2021/04/23 11:32:28;;;;;;;5.03;4.03;;;18.60;65.80;;;;;;5073055;27;20530;-84
2021/04/23 11:34:59;;;;;;;6.77;3.83;;;19.20;62.30;;;;;;5053091;28;20513;-84
2021/04/23 11:37:48;;;;;;;5.70;4.17;;;19.20;63.80;;;;;;5058457;28;21031;-84
2021/04/23 11:40:25;;;;;;;5.83;4.10;;;19.20;62.40;;;;;;5071760;27;20439;-88
2021/04/23 11:42:57;;;;;;;6.17;4.50;;;19.50;61.40;;;;;;5089217;27;20559;-86
2021/04/23 11:45:31;;;;;;;6.77;4.00;;;19.70;59.00;;;;;;5065396;28;20472;-85
2021/04/23 11:47:59;;;;;;;5.70;3.80;;;20.30;59.30;;;;;;5066170;28;20539;-85
2021/04/23 11:50:35;;;;;;;4.33;3.93;;;20.30;56.80;;;;;;5076134;28;20441;-85
2021/04/23 11:53:11;;;;;;;5.93;4.30;;;19.60;55.20;;;;;;5050613;28;20447;-84
2021/04/23 11:55:42;;;;;;;6.20;3.83;;;19.80;57.40;;;;;;5031825;28;20458;-83
2021/04/23 11:58:11;;;;;;;3.50;2.83;;;20.60;55.90;;;;;;5072598;28;20435;-83
2021/04/23 12:00:40;;;;;;;4.70;3.27;;;20.70;55.20;;;;;;5070291;28;20446;-83
2021/04/23 12:03:08;;;;;;;3.80;3.50;;;21.10;56.60;;;;;;5083701;28;20419;-83
2021/04/23 12:05:40;;;;;;;6.13;3.10;;;21.80;55.60;;;;;;5090889;28;20437;-83
2021/04/23 12:08:16;;;;;;;7.03;3.63;;;21.20;53.70;;;;;;5083075;28;20524;-83
2021/04/23 12:10:48;;;;;;;5.80;3.97;;;19.50;53.50;;;;;;5073801;28;21036;-83
2021/04/23 12:13:17;;;;;;;4.23;3.80;;;20.20;53.60;;;;;;5076176;28;20495;-83
2021/04/23 12:15:46;;;;;;;5.73;4.00;;;20.90;53.80;;;;;;5075117;27;20462;-83
2021/04/23 12:18:13;;;;;;;5.73;4.27;;;21.30;53.10;;;;;;5108004;27;20537;-83
2021/04/23 12:20:41;;;;;;;4.20;3.67;;;21.30;52.00;;;;;;5123178;27;20433;-85
2021/04/23 12:23:11;;;;;;;3.73;2.97;;;21.00;52.50;;;;;;5069916;28;20555;-84
2021/04/23 12:25:42;;;;;;;4.90;4.10;;;21.60;52.00;;;;;;5108901;27;20503;-84
2021/04/23 12:28:25;;;;;;;4.50;3.43;;;21.50;51.60;;;;;;5096165;28;20469;-84
2021/04/23 12:30:55;;;;;;;11.60;3.33;;;21.50;51.30;;;;;;5115013;27;20443;-84
2021/04/23 12:33:21;;;;;;;8.80;3.87;;;22.10;51.30;;;;;;5118047;27;20450;-84
2021/04/23 12:35:50;;;;;;;4.00;3.50;;;22.10;51.60;;;;;;5083725;28;20534;-84
2021/04/23 12:38:35;;;;;;;9.07;3.90;;;22.20;51.30;;;;;;5075507;28;20423;-85
2021/04/23 12:41:01;;;;;;;4.77;3.40;;;22.70;51.00;;;;;;5111291;27;20464;-84
2021/04/23 12:43:27;;;;;;;5.97;3.70;;;22.70;49.00;;;;;;5114961;27;20452;-84
2021/04/23 12:45:55;;;;;;;4.10;3.40;;;22.30;49.00;;;;;;5125279;27;20465;-83
2021/04/23 12:48:24;;;;;;;6.23;4.00;;;22.60;49.70;;;;;;5114993;28;20209;-84
2021/04/23 12:50:53;;;;;;;7.13;3.10;;;22.70;46.50;;;;;;5069458;28;20469;-84
2021/04/23 12:53:20;;;;;;;5.03;2.80;;;22.40;46.00;;;;;;5088325;28;21281;-84
2021/04/23 12:55:47;;;;;;;5.30;3.40;;;22.40;45.40;;;;;;5120309;28;20553;-84
2021/04/23 12:58:14;;;;;;;6.50;3.63;;;22.70;47.40;;;;;;5116895;27;20763;-84